Seabrook, SC (29914)

10:40 PM EDT on August 30, 2015 (GMT -0400)
Beaufort Marine Corps Air Station | | Change Station
CLOSE
Current Station
Airport
Location: Beaufort MCAS,
Elevation: 39 ft
Nearby Weather Stations
Active Advisory: Coastal Flood Advisory

Elev 39 ft 32.48 °N, 80.72 °W | Updated 44 minutes ago

Rain
Rain
77 °F
Feels Like 77 °F
N
8
Wind Variable Wind from SE

Today
High -- | Low -- °F
--% Chance of Precip.
Yesterday
High -- | Low -- °F
Precip. -- in
6:56 AM 7:50 PM
Full, 97% visible
Pressure 30.06 in
Visibility 6.0 miles
Clouds Few 1400 ft
Mostly Cloudy 3500 ft
Overcast 4600 ft
Dew Point 75 °F
Humidity 94%
Rainfall 1.44 in
Snow Depth Not available.
UV 0 out of 12
Pollen 3.30 out of 12
Air Quality Not available.
Flu Activity Not available.
METAR KNBC 310156Z AUTO 13007KT 6SM RA FEW014 BKN035 OVC046 25/24 A3005 RMK AO2 SLP177 P0010 T02500239
Pressure 30.06 in
Visibility 6.0 miles
Clouds Few 1400 ft
Mostly Cloudy 3500 ft
Overcast 4600 ft
Dew Point 75 °F
Humidity 94%
Rainfall 1.44 in
Snow Depth Not available.
UV 0 out of 12
Pollen 3.30 out of 12
Air Quality Not available.
Flu Activity Not available.
METAR KNBC 310156Z AUTO 13007KT 6SM RA FEW014 BKN035 OVC046 25/24 A3005 RMK AO2 SLP177 P0010 T02500239

10-Day Weather Forecast

×

Almanac

Astronomy

Aug. 30, 2015 Rise Set
Actual Time
Civil Twilight
Nautical Twilight
Astronomical Twilight
Moon
Length of Visible Light
Length of Day
Tomorrow will be .
, % of the Moon is Illuminated

Today's Extremes

State Highs State Lows

Community

WunderPhotos

Upload Photos

1,851,165 photos uploaded!

WunderBlogs® & News

Nearby

Air Quality

  Air Quality AQ Index Pollutant
Not available.

Snow Depth

Station Depth Elevation

Earthquake Activity

City Distance Mag. Time & Date
Minimum magnitude displayed is 2.5.

Coastal Water Temperatures

Place Temperature

Stations

Nearby Weather Stations

Station Location Temp. Windchill Dew Point Humidity Wind Precip. Elev Updated Type
                   
Coastal Flood Advisory
Statement as of 7:42 PM EDT on August 30, 2015

... Coastal Flood Advisory remains in effect until midnight EDT
tonight...

* location... low-lying locations along and near the lower South
Carolina coast.

* Tide levels... around 7.3 feet mean lower low water.

* Timing... the risk for shallow coastal flooding will be the
highest within an hour either side of high tide. High tide
will occur at Charleston Harbor around 924 PM.

* Impacts... inundation of saltwater in and near low-lying
coastal areas could lead to some Road closures and flooding of
properties.

Precautionary/preparedness actions...

Be prepared for the possibility of Road closures and minor
flooding of properties. If travel is necessary... do not attempt
to drive through water of unknown depth.



Jrl